Time;durP1;ratioP1;P1;durP2;ratioP2;P2;SDS_P1;SDS_P2;PMS_P1;PMS_P2;Temp;Humidity;BMP_temperature;BMP_pressure;BME280_temperature;BME280_humidity;BME280_pressure;Samples;Min_cycle;Max_cycle;Signal;HPM_P1;HPM_P2
2021/06/24 00:00:16;;;;;;;9.30;4.95;;;;;;;0.01;0.00;59042.03;10320417;28;20075;-60
2021/06/24 00:05:14;;;;;;;11.90;5.38;;;;;;;0.01;0.00;59042.03;10319664;28;20076;-61
2021/06/24 00:10:14;;;;;;;14.68;4.75;;;;;;;0.01;0.00;59042.03;10320040;28;20045;-61
2021/06/24 00:15:16;;;;;;;12.85;6.03;;;;;;;0.01;0.00;59042.03;10319724;28;20036;-61
2021/06/24 00:20:16;;;;;;;8.45;5.57;;;;;;;0.01;0.00;59042.03;10319480;28;20063;-60
2021/06/24 00:25:15;;;;;;;10.77;6.07;;;;;;;0.01;0.00;59042.03;10318751;28;20470;-61
2021/06/24 00:30:17;;;;;;;11.98;5.60;;;;;;;0.01;0.00;59042.03;10317980;28;20064;-59
2021/06/24 00:35:16;;;;;;;15.50;5.35;;;;;;;0.01;0.00;59042.03;10318581;28;20044;-61
2021/06/24 00:40:16;;;;;;;13.10;5.22;;;;;;;0.01;0.00;59042.03;10317766;28;20049;-61
2021/06/24 00:45:17;;;;;;;9.82;4.90;;;;;;;0.01;0.00;59042.03;10317664;28;20088;-61
2021/06/24 00:50:16;;;;;;;12.98;4.88;;;;;;;0.01;0.00;59042.03;10317438;28;20044;-61
2021/06/24 00:55:15;;;;;;;8.63;5.43;;;;;;;0.01;0.00;59042.03;10316961;28;20044;-61
2021/06/24 01:00:17;;;;;;;13.40;4.85;;;;;;;0.01;0.00;59042.03;10317461;28;20055;-61
2021/06/24 01:05:16;;;;;;;8.32;4.88;;;;;;;0.01;0.00;59042.03;10298893;28;20056;-61
2021/06/24 01:10:15;;;;;;;12.52;4.80;;;;;;;0.01;0.00;59042.03;10298784;28;20441;-61
2021/06/24 01:15:16;;;;;;;10.75;5.35;;;;;;;0.01;0.00;59042.03;10316651;28;20044;-61
2021/06/24 01:20:17;;;;;;;;;;;;;;;0.01;0.00;59042.03;10299521;28;20048;-61
2021/06/24 01:25:18;;;;;;;13.25;5.80;;;;;;;0.01;0.00;59042.03;10316338;28;19960;-61
2021/06/24 01:30:19;;;;;;;16.48;5.00;;;;;;;0.01;0.00;59042.03;10298303;28;20378;-61
2021/06/24 01:35:27;;;;;;;6.75;4.30;;;;;;;0.01;0.00;59042.03;10316290;28;20037;-61
2021/06/24 01:40:28;;;;;;;11.82;4.32;;;;;;;0.01;0.00;59042.03;10298209;28;20048;-61
2021/06/24 01:45:28;;;;;;;9.35;4.32;;;;;;;0.01;0.00;59042.03;10316069;28;20080;-61
2021/06/24 01:50:27;;;;;;;8.52;4.15;;;;;;;0.01;0.00;59042.03;10315297;28;20063;-61
2021/06/24 01:55:33;;;;;;;12.50;4.25;;;;;;;0.01;0.00;59042.03;10298002;28;20513;-61
2021/06/24 02:00:42;;;;;;;10.23;7.13;;;;;;;0.01;0.00;59042.03;10297671;28;20552;-58
2021/06/24 02:05:50;;;;;;;11.65;5.75;;;;;;;0.01;0.00;59042.03;10297068;28;20090;-58
2021/06/24 02:10:51;;;;;;;14.82;4.90;;;;;;;0.01;0.00;59042.03;10315607;28;20499;-59
2021/06/24 02:15:50;;;;;;;10.75;4.85;;;;;;;0.01;0.00;59042.03;10297205;28;20060;-59
2021/06/24 02:20:50;;;;;;;12.73;5.28;;;;;;;0.01;0.00;59042.03;10297061;28;20064;-58
2021/06/24 02:26:08;;;;;;;13.73;5.63;;;;;;;0.01;0.00;59042.03;10297278;28;20045;-59
2021/06/24 02:31:14;;;;;;;12.32;5.65;;;;;;;0.01;0.00;59042.03;10296674;28;20061;-59
2021/06/24 02:36:15;;;;;;;8.95;5.10;;;;;;;0.01;0.00;59042.03;10297249;28;20512;-58
2021/06/24 02:41:15;;;;;;;17.17;6.55;;;;;;;0.01;0.00;59042.03;10315040;28;20048;-59
2021/06/24 02:46:15;;;;;;;15.00;5.63;;;;;;;0.01;0.00;59042.03;10314685;28;20084;-58
2021/06/24 02:51:21;;;;;;;12.15;5.28;;;;;;;0.01;0.00;59042.03;10303828;28;20060;-59
2021/06/24 02:56:41;;;;;;;7.78;5.20;;;;;;;0.01;0.00;59042.03;10304122;28;20390;-58
2021/06/24 03:02:00;;;;;;;16.88;6.75;;;;;;;0.01;0.00;59042.03;10322121;28;20053;-58
2021/06/24 03:07:04;;;;;;;12.05;5.85;;;;;;;0.01;0.00;59042.03;10321062;28;20079;-59
2021/06/24 03:12:11;;;;;;;17.98;5.72;;;;;;;0.01;0.00;59042.03;10302599;28;20044;-58
2021/06/24 03:17:13;;;;;;;13.63;5.55;;;;;;;0.01;0.00;59042.03;10303500;28;20060;-58
2021/06/24 03:22:13;;;;;;;10.50;5.25;;;;;;;0.01;0.00;59042.03;10321617;28;20509;-58
2021/06/24 03:27:23;;;;;;;8.93;5.13;;;;;;;0.01;0.00;59042.03;10322176;28;20079;-58
2021/06/24 03:32:40;;;;;;;14.18;6.05;;;;;;;0.01;0.00;59042.03;10322967;28;20052;-59
2021/06/24 03:37:40;;;;;;;16.02;5.78;;;;;;;0.01;0.00;59042.03;10302259;28;20059;-59
2021/06/24 03:42:41;;;;;;;13.68;6.10;;;;;;;0.01;0.00;59042.03;10319439;28;20091;-58
2021/06/24 03:47:42;;;;;;;11.07;5.97;;;;;;;0.01;0.00;59042.03;10320626;28;20072;-59
2021/06/24 03:52:42;;;;;;;10.88;6.38;;;;;;;0.01;0.00;59042.03;10302062;28;20056;-58
2021/06/24 03:57:43;;;;;;;12.65;5.68;;;;;;;0.01;0.00;59042.03;10300180;28;20516;-58
2021/06/24 04:43:11;;;;;;;10.90;4.70;;;;;;;0.01;0.00;59042.03;10309546;28;20076;-58
2021/06/24 04:48:13;;;;;;;21.48;6.95;;;;;;;0.01;0.00;59042.03;10299531;28;20201;-58
2021/06/24 04:53:15;;;;;;;22.50;16.30;;;;;;;0.01;0.00;59042.03;10298936;28;20618;-58
2021/06/24 04:58:34;;;;;;;30.38;7.47;;;;;;;0.01;0.00;59042.03;10299045;28;20607;-58
2021/06/24 05:03:52;;;;;;;37.63;10.57;;;;;;;0.01;0.00;59042.03;10327320;28;20053;-59
2021/06/24 05:08:51;;;;;;;12.75;5.70;;;;;;;0.01;0.00;59042.03;10316003;28;20493;-58
2021/06/24 05:13:51;;;;;;;9.30;5.72;;;;;;;0.01;0.00;59042.03;10316821;28;20425;-59
2021/06/24 05:18:50;;;;;;;12.25;5.80;;;;;;;0.01;0.00;59042.03;10316702;28;20041;-58
2021/06/24 05:23:49;;;;;;;13.88;5.63;;;;;;;0.01;0.00;59042.03;10312651;28;20524;-57
2021/06/24 05:28:48;;;;;;;13.65;5.97;;;;;;;0.01;0.00;59042.03;10311088;28;20485;-56
2021/06/24 05:33:48;;;;;;;13.90;6.47;;;;;;;0.01;0.00;59042.03;10311563;28;20075;-58
2021/06/24 05:38:47;;;;;;;14.30;5.47;;;;;;;0.01;0.00;59042.03;10315575;28;20048;-58
2021/06/24 05:43:46;;;;;;;6.22;4.90;;;;;;;0.01;0.00;59042.03;10315217;28;20072;-58
2021/06/24 05:48:45;;;;;;;15.18;5.22;;;;;;;0.01;0.00;59042.03;10312379;28;20535;-58
2021/06/24 05:53:45;;;;;;;10.88;4.60;;;;;;;0.01;0.00;59042.03;10314166;28;20067;-57
2021/06/24 05:58:44;;;;;;;9.50;5.13;;;;;;;0.01;0.00;59042.03;10312696;28;20049;-58
2021/06/24 06:03:43;;;;;;;9.82;5.32;;;;;;;0.01;0.00;59042.03;10312037;28;20523;-58
2021/06/24 06:08:42;;;;;;;11.25;5.55;;;;;;;0.01;0.00;59042.03;10314247;28;20099;-57
2021/06/24 06:13:42;;;;;;;12.77;6.93;;;;;;;0.01;0.00;59042.03;10310251;28;20462;-58
2021/06/24 06:18:41;;;;;;;7.13;5.70;;;;;;;0.01;0.00;59042.03;10315038;28;20044;-56
2021/06/24 06:23:40;;;;;;;64.22;57.67;;;;;;;0.01;0.00;59042.03;10309207;28;20498;-56
2021/06/24 06:28:39;;;;;;;13.45;7.50;;;;;;;0.01;0.00;59042.03;10319815;28;20099;-57
2021/06/24 06:33:39;;;;;;;15.73;4.60;;;;;;;0.01;0.00;59042.03;10320765;28;20088;-58
2021/06/24 06:38:38;;;;;;;8.57;5.65;;;;;;;0.01;0.00;59042.03;10322946;28;20532;-58
2021/06/24 06:43:37;;;;;;;9.30;5.20;;;;;;;0.01;0.00;59042.03;10319635;28;20103;-57
2021/06/24 06:48:36;;;;;;;10.38;5.15;;;;;;;0.01;0.00;59042.03;10319369;28;20060;-58
2021/06/24 06:53:36;;;;;;;9.73;4.50;;;;;;;0.01;0.00;59042.03;10310966;28;20068;-57
2021/06/24 06:58:35;;;;;;;8.38;5.18;;;;;;;0.01;0.00;59042.03;10319249;28;20080;-57
2021/06/24 07:03:34;;;;;;;11.13;4.55;;;;;;;0.01;0.00;59042.03;10321785;28;20044;-57
2021/06/24 07:08:37;;;;;;;14.35;3.80;;;;;;;0.01;0.00;59042.03;10320840;28;20521;-57
2021/06/24 07:13:36;;;;;;;15.55;4.07;;;;;;;0.01;0.00;59042.03;10321605;28;20041;-58
2021/06/24 07:18:35;;;;;;;10.55;5.88;;;;;;;0.01;0.00;59042.03;10321489;28;20049;-57
2021/06/24 07:23:34;;;;;;;9.27;3.72;;;;;;;0.01;0.00;59042.03;10321363;28;20103;-58
2021/06/24 07:28:35;;;;;;;8.82;5.55;;;;;;;0.01;0.00;59042.03;10303124;28;20077;-57
2021/06/24 07:33:34;;;;;;;10.77;5.50;;;;;;;0.01;0.00;59042.03;10319164;28;20051;-57
2021/06/24 07:38:33;;;;;;;11.65;4.55;;;;;;;0.01;0.00;59042.03;10320829;28;20045;-57
2021/06/24 07:43:34;;;;;;;8.35;4.53;;;;;;;0.01;0.00;59042.03;10320725;28;20195;-57
2021/06/24 07:48:32;;;;;;;6.00;3.78;;;;;;;0.01;0.00;59042.03;10319552;28;20053;-58
2021/06/24 07:53:31;;;;;;;8.63;3.88;;;;;;;0.01;0.00;59042.03;10319949;28;20041;-58
2021/06/24 07:58:30;;;;;;;7.78;6.18;;;;;;;0.01;0.00;59042.03;10320017;28;20041;-57
2021/06/24 08:03:35;;;;;;;7.00;5.00;;;;;;;0.01;0.00;59042.03;10319408;28;20461;-58
2021/06/24 08:08:34;;;;;;;15.10;11.13;;;;;;;0.01;0.00;59042.03;10318872;28;20080;-58
2021/06/24 08:13:33;;;;;;;11.52;4.53;;;;;;;0.01;0.00;59042.03;10318701;28;20078;-58
2021/06/24 08:18:32;;;;;;;9.25;4.68;;;;;;;0.01;0.00;59042.03;10319023;28;20513;-58
2021/06/24 08:23:33;;;;;;;12.10;6.57;;;;;;;0.01;0.00;59042.03;10318507;28;20056;-58
2021/06/24 08:28:32;;;;;;;13.15;6.93;;;;;;;0.01;0.00;59042.03;10318347;28;20040;-57
2021/06/24 08:33:34;;;;;;;8.80;5.45;;;;;;;0.01;0.00;59042.03;10317876;28;20048;-58
2021/06/24 08:38:34;;;;;;;11.00;5.45;;;;;;;0.01;0.00;59042.03;10317552;28;20083;-58
2021/06/24 08:43:33;;;;;;;10.77;5.35;;;;;;;0.01;0.00;59042.03;10317358;28;20809;-57
2021/06/24 08:48:35;;;;;;;14.25;9.02;;;;;;;0.01;0.00;59042.03;10317592;28;20323;-58
2021/06/24 08:53:36;;;;;;;13.45;5.78;;;;;;;0.01;0.00;59042.03;10299486;28;20498;-58
2021/06/24 08:58:35;;;;;;;20.73;5.75;;;;;;;0.01;0.00;59042.03;10317635;28;20044;-58
2021/06/24 09:03:33;;;;;;;14.98;5.57;;;;;;;0.01;0.00;59042.03;10317228;28;20048;-58
2021/06/24 09:08:41;;;;;;;13.32;6.35;;;;;;;0.01;0.00;59042.03;10298734;28;20540;-57
2021/06/24 09:13:41;;;;;;;17.08;6.35;;;;;;;0.01;0.00;59042.03;10316995;28;20076;-58
2021/06/24 09:18:40;;;;;;;11.70;5.63;;;;;;;0.01;0.00;59042.03;10316317;28;20052;-58
2021/06/24 09:23:40;;;;;;;20.40;9.07;;;;;;;0.01;0.00;59042.03;10316313;28;20056;-58
2021/06/24 09:28:40;;;;;;;11.73;5.10;;;;;;;0.01;0.00;59042.03;10316605;28;20509;-58
2021/06/24 09:33:40;;;;;;;10.02;5.88;;;;;;;0.01;0.00;59042.03;10316388;28;20045;-58
2021/06/24 09:38:43;;;;;;;16.73;6.53;;;;;;;0.01;0.00;59042.03;10315449;28;20048;-58
2021/06/24 09:43:45;;;;;;;11.90;5.30;;;;;;;0.01;0.00;59042.03;10316290;28;20550;-58
2021/06/24 09:48:46;;;;;;;13.13;6.65;;;;;;;0.01;0.00;59042.03;10316105;28;20087;-59
2021/06/24 09:53:51;;;;;;;15.93;6.35;;;;;;;0.01;0.00;59042.03;10292941;28;20470;-59
2021/06/24 09:58:51;;;;;;;12.70;6.72;;;;;;;0.01;0.00;59042.03;10309519;28;20057;-59
2021/06/24 10:03:50;;;;;;;19.52;6.47;;;;;;;0.01;0.00;59042.03;10314657;28;20213;-59
2021/06/24 10:08:51;;;;;;;12.45;6.50;;;;;;;0.01;0.00;59042.03;10313937;28;20458;-59
2021/06/24 10:13:50;;;;;;;17.33;5.85;;;;;;;0.01;0.00;59042.03;10312211;28;20072;-58
2021/06/24 10:18:50;;;;;;;22.70;6.20;;;;;;;0.01;0.00;59042.03;10313405;28;20410;-58
2021/06/24 10:23:55;;;;;;;10.50;6.35;;;;;;;0.01;0.00;59042.03;10313568;28;20461;-57
2021/06/24 10:29:11;;;;;;;16.67;6.45;;;;;;;0.01;0.00;59042.03;10313671;28;20049;-59
2021/06/24 10:34:10;;;;;;;17.52;6.50;;;;;;;0.01;0.00;59042.03;10297249;28;20490;-59
2021/06/24 10:39:15;;;;;;;14.10;6.03;;;;;;;0.01;0.00;59042.03;10312373;28;20072;-58
2021/06/24 10:44:34;;;;;;;21.02;8.52;;;;;;;0.01;0.00;59042.03;10304617;28;20453;-58
2021/06/24 10:49:33;;;;;;;16.70;6.78;;;;;;;0.01;0.00;59042.03;10313861;28;20068;-58
2021/06/24 10:54:43;;;;;;;18.70;6.68;;;;;;;0.01;0.00;59042.03;10298995;28;20076;-58
2021/06/24 10:59:41;;;;;;;17.98;6.40;;;;;;;0.01;0.00;59042.03;10304170;28;20072;-59
2021/06/24 11:04:43;;;;;;;19.95;6.13;;;;;;;0.01;0.00;59042.03;10295576;28;20049;-58
2021/06/24 11:10:16;;;;;;;16.35;6.10;;;;;;;0.01;0.00;59042.03;10317240;28;20501;-59
2021/06/24 11:15:45;;;;;;;14.07;5.88;;;;;;;0.01;0.00;59042.03;10320600;28;20056;-58
2021/06/24 11:20:45;;;;;;;13.00;6.82;;;;;;;0.01;0.00;59042.03;10317104;28;20083;-58
2021/06/24 11:26:06;;;;;;;14.48;6.53;;;;;;;0.01;0.00;59042.03;10316791;28;20076;-58
2021/06/24 11:31:07;;;;;;;18.13;6.53;;;;;;;0.01;0.00;59042.03;10317306;28;20076;-58
2021/06/24 11:36:13;;;;;;;16.30;6.22;;;;;;;0.01;0.00;59042.03;10319513;28;20048;-58
2021/06/24 11:41:13;;;;;;;17.80;6.43;;;;;;;0.01;0.00;59042.03;10319800;28;20097;-59
2021/06/24 11:46:12;;;;;;;18.67;7.55;;;;;;;0.01;0.00;59042.03;10321402;28;20132;-58
2021/06/24 12:03:03;;;;;;;26.00;6.22;;;;;;;0.01;0.00;59042.03;10320134;28;20059;-58
2021/06/24 12:07:18;;;;;;;11.68;5.68;;;;;;;0.01;0.00;59042.03;10320724;28;20036;-58
2021/06/24 12:12:20;;;;;;;20.38;6.20;;;;;;;0.01;0.00;59042.03;10320276;28;20075;-58
2021/06/24 12:17:22;;;;;;;11.70;5.93;;;;;;;0.01;0.00;59042.03;10319280;28;20052;-59
2021/06/24 12:22:24;;;;;;;13.33;4.97;;;;;;;0.01;0.00;59042.03;10319388;28;20048;-58
2021/06/24 12:27:28;;;;;;;17.95;6.05;;;;;;;0.01;0.00;59042.03;10319332;28;20048;-59
2021/06/24 12:32:28;;;;;;;15.60;6.20;;;;;;;0.01;0.00;59042.03;10319551;28;20052;-58
2021/06/24 12:37:36;;;;;;;16.77;10.32;;;;;;;0.01;0.00;59042.03;10318439;28;20078;-58
2021/06/24 12:42:44;;;;;;;14.90;6.60;;;;;;;0.01;0.00;59042.03;10318031;28;20088;-58
2021/06/24 12:47:56;;;;;;;13.80;6.70;;;;;;;0.01;0.00;59042.03;10300092;28;20048;-58
2021/06/24 12:52:57;;;;;;;12.38;5.97;;;;;;;0.01;0.00;59042.03;10316570;28;20083;-58
2021/06/24 12:57:59;;;;;;;13.27;6.57;;;;;;;0.01;0.00;59042.03;10316824;28;20045;-58
2021/06/24 13:02:57;;;;;;;19.65;6.78;;;;;;;0.01;0.00;59042.03;10308455;28;20072;-56
2021/06/24 13:07:58;;;;;;;20.10;6.80;;;;;;;0.01;0.00;59042.03;10310826;28;20076;-58
2021/06/24 13:12:59;;;;;;;14.77;6.30;;;;;;;0.01;0.00;59042.03;10291215;28;20076;-58
2021/06/24 13:17:58;;;;;;;15.48;6.22;;;;;;;0.01;0.00;59042.03;10313478;28;20075;-55
2021/06/24 13:23:07;;;;;;;15.77;9.32;;;;;;;0.01;0.00;59042.03;10311565;28;20087;-56
2021/06/24 13:28:09;;;;;;;15.32;7.20;;;;;;;0.01;0.00;59042.03;10305945;28;20496;-55
2021/06/24 13:33:08;;;;;;;10.02;5.80;;;;;;;0.01;0.00;59042.03;10251530;28;20080;-56
2021/06/24 13:38:13;;;;;;;24.45;8.32;;;;;;;0.01;0.00;59042.03;10270269;28;20469;-57
2021/06/24 13:43:25;;;;;;;12.32;6.32;;;;;;;0.01;0.00;59042.03;10274689;28;20076;-55
2021/06/24 13:48:25;;;;;;;23.93;6.47;;;;;;;0.01;0.00;59042.03;10307644;28;20079;-58
2021/06/24 13:53:25;;;;;;;10.00;5.60;;;;;;;0.01;0.00;59042.03;10312671;28;20080;-56
2021/06/24 13:58:28;;;;;;;15.13;9.85;;;;;;;0.01;0.00;59042.03;10308065;28;20072;-55
2021/06/24 14:03:27;;;;;;;15.45;6.20;;;;;;;0.01;0.00;59042.03;10315280;28;20044;-57
2021/06/24 14:08:26;;;;;;;15.40;6.05;;;;;;;0.01;0.00;59042.03;10315202;28;20049;-55
2021/06/24 14:13:26;;;;;;;14.75;6.15;;;;;;;0.01;0.00;59042.03;10297825;28;20052;-55
2021/06/24 14:18:25;;;;;;;20.13;6.50;;;;;;;0.01;0.00;59042.03;10315316;28;20044;-55
2021/06/24 14:23:24;;;;;;;22.20;11.90;;;;;;;0.01;0.00;59042.03;10314793;28;20053;-58
2021/06/24 14:28:23;;;;;;;16.73;7.18;;;;;;;0.01;0.00;59042.03;10315487;28;20048;-59
2021/06/24 14:33:23;;;;;;;14.63;6.70;;;;;;;0.01;0.00;59042.03;10314604;28;20545;-58
2021/06/24 14:38:22;;;;;;;16.35;6.60;;;;;;;0.01;0.00;59042.03;10314830;28;20045;-58
2021/06/24 14:43:21;;;;;;;22.17;10.98;;;;;;;0.01;0.00;59042.03;10302970;28;20422;-58
2021/06/24 14:48:20;;;;;;;14.70;6.43;;;;;;;0.01;0.00;59042.03;10281548;28;20053;-58
2021/06/24 14:53:20;;;;;;;18.17;6.57;;;;;;;0.01;0.00;59042.03;10282174;28;20077;-58
2021/06/24 14:58:19;;;;;;;14.35;6.80;;;;;;;0.01;0.00;59042.03;10281005;28;20438;-58
2021/06/24 15:03:18;;;;;;;10.90;6.03;;;;;;;0.01;0.00;59042.03;10281056;28;20049;-58
2021/06/24 15:08:17;;;;;;;12.50;6.55;;;;;;;0.01;0.00;59042.03;10281317;28;20422;-58
2021/06/24 15:13:17;;;;;;;14.52;6.63;;;;;;;0.01;0.00;59042.03;10281279;28;20072;-58
2021/06/24 15:18:16;;;;;;;14.48;6.03;;;;;;;0.01;0.00;59042.03;10281066;28;20398;-57
2021/06/24 15:23:15;;;;;;;17.23;9.52;;;;;;;0.01;0.00;59042.03;10280619;28;20052;-58
2021/06/24 15:28:15;;;;;;;20.33;7.45;;;;;;;0.01;0.00;59042.03;10280549;28;20053;-58
2021/06/24 15:33:16;;;;;;;11.45;5.93;;;;;;;0.01;0.00;59042.03;10280920;28;20093;-58
2021/06/24 15:38:15;;;;;;;16.05;8.80;;;;;;;0.01;0.00;59042.03;10280011;28;20072;-58
2021/06/24 15:43:14;;;;;;;17.08;5.45;;;;;;;0.01;0.00;59042.03;10279717;28;20405;-58
2021/06/24 15:48:12;;;;;;;13.23;6.47;;;;;;;0.01;0.00;59042.03;10279718;28;20045;-59
2021/06/24 15:53:13;;;;;;;15.60;6.55;;;;;;;0.01;0.00;59042.03;10279395;28;20056;-58
2021/06/24 15:58:14;;;;;;;12.38;6.40;;;;;;;0.01;0.00;59042.03;10278499;28;20399;-58
2021/06/24 16:03:30;;;;;;;13.85;6.32;;;;;;;0.01;0.00;59042.03;10278741;28;20048;-58
2021/06/24 16:08:30;;;;;;;14.40;6.05;;;;;;;0.01;0.00;59042.03;10278642;28;20148;-58
2021/06/24 16:13:29;;;;;;;14.07;7.57;;;;;;;0.01;0.00;59042.03;10278742;28;20493;-58
2021/06/24 16:18:28;;;;;;;18.42;7.18;;;;;;;0.01;0.00;59042.03;10278542;28;20041;-59
2021/06/24 16:23:27;;;;;;;15.38;7.25;;;;;;;0.01;0.00;59042.03;10278582;28;20387;-59
2021/06/24 16:28:28;;;;;;;21.02;8.63;;;;;;;0.01;0.00;59042.03;10278418;28;20037;-59
2021/06/24 16:33:26;;;;;;;20.08;6.70;;;;;;;0.01;0.00;59042.03;10277126;28;20095;-60
2021/06/24 16:38:25;;;;;;;16.48;9.07;;;;;;;0.01;0.00;59042.03;10275200;28;20153;-59
2021/06/24 16:43:24;;;;;;;17.45;6.97;;;;;;;0.01;0.00;59042.03;10288809;28;20072;-62
2021/06/24 16:48:25;;;;;;;18.58;14.27;;;;;;;0.01;0.00;59042.03;10316892;28;20053;-62
2021/06/24 16:53:24;;;;;;;22.55;12.15;;;;;;;0.01;0.00;59042.03;10308869;28;20075;-60
2021/06/24 16:58:23;;;;;;;17.27;8.25;;;;;;;0.01;0.00;59042.03;10307743;28;20505;-62
2021/06/24 17:03:21;;;;;;;23.10;13.10;;;;;;;0.01;0.00;59042.03;10314392;28;20520;-62
2021/06/24 17:08:22;;;;;;;31.45;24.88;;;;;;;0.01;0.00;59042.03;10314610;28;20051;-62
2021/06/24 17:13:21;;;;;;;32.22;29.08;;;;;;;0.01;0.00;59042.03;10311699;28;20083;-63
2021/06/24 17:18:20;;;;;;;25.73;17.27;;;;;;;0.01;0.00;59042.03;10316097;28;20047;-61
2021/06/24 17:23:22;;;;;;;24.50;14.57;;;;;;;0.01;0.00;59042.03;10298263;28;20044;-62
2021/06/24 17:28:23;;;;;;;38.93;31.53;;;;;;;0.01;0.00;59042.03;10309357;28;20090;-62
2021/06/24 17:33:22;;;;;;;24.73;19.42;;;;;;;0.01;0.00;59042.03;10310907;28;20588;-61
2021/06/24 17:38:21;;;;;;;30.33;19.52;;;;;;;0.01;0.00;59042.03;10313787;28;20072;-61
2021/06/24 17:43:20;;;;;;;53.30;46.10;;;;;;;0.01;0.00;59042.03;10313542;28;20087;-62
2021/06/24 17:48:22;;;;;;;31.48;22.30;;;;;;;0.01;0.00;59042.03;10312855;28;20068;-63
2021/06/24 17:53:23;;;;;;;21.48;18.98;;;;;;;0.01;0.00;59042.03;10309040;28;20513;-62
2021/06/24 17:58:22;;;;;;;26.23;17.75;;;;;;;0.01;0.00;59042.03;10308396;28;20072;-62
2021/06/24 18:03:22;;;;;;;21.23;15.23;;;;;;;0.01;0.00;59042.03;10305101;28;20075;-62
2021/06/24 18:08:21;;;;;;;21.70;14.82;;;;;;;0.01;0.00;59042.03;10307430;28;20046;-62
2021/06/24 18:13:20;;;;;;;28.70;23.77;;;;;;;0.01;0.00;59042.03;10314068;28;20079;-62
2021/06/24 18:18:19;;;;;;;30.75;17.13;;;;;;;0.01;0.00;59042.03;10314737;28;20041;-62
2021/06/24 18:23:19;;;;;;;26.02;16.80;;;;;;;0.01;0.00;59042.03;10321810;28;20075;-61
2021/06/24 18:28:18;;;;;;;19.17;16.90;;;;;;;0.01;0.00;59042.03;10321641;28;20120;-61
2021/06/24 18:33:17;;;;;;;16.13;11.88;;;;;;;0.01;0.00;59042.03;10314080;28;20510;-61
2021/06/24 18:38:17;;;;;;;16.65;9.32;;;;;;;0.01;0.00;59042.03;10318420;28;20158;-61
2021/06/24 18:43:17;;;;;;;15.75;8.75;;;;;;;0.01;0.00;59042.03;10317352;28;20076;-61
2021/06/24 18:48:16;;;;;;;18.83;7.32;;;;;;;0.01;0.00;59042.03;10318453;28;20072;-61
2021/06/24 18:53:15;;;;;;;19.67;7.18;;;;;;;0.01;0.00;59042.03;10318442;28;20082;-61
2021/06/24 18:58:14;;;;;;;15.05;7.70;;;;;;;0.01;0.00;59042.03;10319999;28;20107;-61
2021/06/24 19:03:15;;;;;;;14.07;7.38;;;;;;;0.01;0.00;59042.03;10317809;28;20072;-61
2021/06/24 19:08:14;;;;;;;13.88;6.65;;;;;;;0.01;0.00;59042.03;10315710;28;20580;-61
2021/06/24 19:13:13;;;;;;;10.55;6.97;;;;;;;0.01;0.00;59042.03;10313974;28;20670;-61
2021/06/24 19:18:15;;;;;;;19.58;10.63;;;;;;;0.01;0.00;59042.03;10317340;28;20068;-61
2021/06/24 19:23:14;;;;;;;21.40;9.38;;;;;;;0.01;0.00;59042.03;10312314;28;20068;-62
2021/06/24 19:28:13;;;;;;;23.75;9.48;;;;;;;0.01;0.00;59042.03;10316403;28;20064;-61
2021/06/24 19:33:12;;;;;;;18.00;7.82;;;;;;;0.01;0.00;59042.03;10310362;28;20139;-63
2021/06/24 19:38:12;;;;;;;9.98;7.28;;;;;;;0.01;0.00;59042.03;10313212;28;20068;-62
2021/06/24 19:43:11;;;;;;;22.42;9.38;;;;;;;0.01;0.00;59042.03;10316479;28;20080;-63
2021/06/24 19:48:10;;;;;;;16.10;6.97;;;;;;;0.01;0.00;59042.03;10316894;28;20075;-62
2021/06/24 19:53:09;;;;;;;13.70;7.13;;;;;;;0.01;0.00;59042.03;10312483;28;20071;-62
2021/06/24 19:58:09;;;;;;;21.52;11.40;;;;;;;0.01;0.00;59042.03;10298048;28;20047;-62
2021/06/24 20:03:08;;;;;;;18.63;7.20;;;;;;;0.01;0.00;59042.03;10308146;28;20182;-59
2021/06/24 20:08:07;;;;;;;13.32;7.68;;;;;;;0.01;0.00;59042.03;10311410;28;20083;-61
2021/06/24 20:13:06;;;;;;;22.02;10.10;;;;;;;0.01;0.00;59042.03;10312154;28;20076;-61
2021/06/24 20:18:06;;;;;;;14.95;6.68;;;;;;;0.01;0.00;59042.03;10313743;28;20060;-62
2021/06/24 20:23:09;;;;;;;18.17;7.20;;;;;;;0.01;0.00;59042.03;10309254;28;20076;-61
2021/06/24 20:28:07;;;;;;;17.45;7.18;;;;;;;0.01;0.00;59042.03;10313931;28;20068;-62
2021/06/24 20:33:09;;;;;;;16.38;6.97;;;;;;;0.01;0.00;59042.03;10311466;28;20072;-61
2021/06/24 20:38:08;;;;;;;18.02;8.73;;;;;;;0.01;0.00;59042.03;10315704;28;20076;-63
2021/06/24 20:43:07;;;;;;;12.00;7.88;;;;;;;0.01;0.00;59042.03;10310620;28;20080;-60
2021/06/24 20:48:08;;;;;;;11.75;6.95;;;;;;;0.01;0.00;59042.03;10305242;28;20052;-59
2021/06/24 20:53:07;;;;;;;15.88;7.70;;;;;;;0.01;0.00;59042.03;10307690;28;20086;-58
2021/06/24 20:58:06;;;;;;;18.60;9.85;;;;;;;0.01;0.00;59042.03;10302913;28;20064;-56
2021/06/24 21:03:05;;;;;;;22.60;8.32;;;;;;;0.01;0.00;59042.03;10307563;28;20068;-58
2021/06/24 21:08:07;;;;;;;18.42;8.48;;;;;;;0.01;0.00;59042.03;10308059;28;20068;-56
2021/06/24 21:13:06;;;;;;;16.33;7.72;;;;;;;0.01;0.00;59042.03;10305538;28;20116;-59
2021/06/24 21:18:05;;;;;;;18.52;8.10;;;;;;;0.01;0.00;59042.03;10305703;28;20482;-58
2021/06/24 21:23:06;;;;;;;11.93;7.32;;;;;;;0.01;0.00;59042.03;10308284;28;20068;-58
2021/06/24 21:28:05;;;;;;;14.40;7.53;;;;;;;0.01;0.00;59042.03;10307711;28;20109;-58
2021/06/24 21:33:04;;;;;;;13.23;7.93;;;;;;;0.01;0.00;59042.03;10310714;28;20504;-57
2021/06/24 21:38:04;;;;;;;19.60;8.63;;;;;;;0.01;0.00;59042.03;10303528;28;20505;-57
2021/06/24 21:43:04;;;;;;;18.45;9.02;;;;;;;0.01;0.00;59042.03;10298845;28;20144;-58
2021/06/24 21:48:03;;;;;;;11.55;7.20;;;;;;;0.01;0.00;59042.03;10302951;28;20539;-58
2021/06/24 21:53:03;;;;;;;15.65;8.05;;;;;;;0.01;0.00;59042.03;10304653;28;20087;-57
2021/06/24 21:58:02;;;;;;;15.00;8.73;;;;;;;0.01;0.00;59042.03;10302993;28;20072;-58
2021/06/24 22:03:02;;;;;;;16.75;7.55;;;;;;;0.01;0.00;59042.03;10308303;28;20072;-60
2021/06/24 22:08:01;;;;;;;15.07;8.32;;;;;;;0.01;0.00;59042.03;10278802;28;20251;-58
2021/06/24 22:13:00;;;;;;;15.05;8.75;;;;;;;0.01;0.00;59042.03;10301795;28;20083;-58
2021/06/24 22:17:59;;;;;;;15.57;8.25;;;;;;;0.01;0.00;59042.03;10296976;28;20614;-59
2021/06/24 22:22:59;;;;;;;15.07;8.65;;;;;;;0.01;0.00;59042.03;10300006;28;20462;-58
2021/06/24 22:27:59;;;;;;;23.80;8.55;;;;;;;0.01;0.00;59042.03;10303193;28;20502;-58
2021/06/24 22:32:59;;;;;;;18.92;8.32;;;;;;;0.01;0.00;59042.03;10315838;28;20072;-58
2021/06/24 22:37:59;;;;;;;12.45;7.63;;;;;;;0.01;0.00;59042.03;10313749;28;20041;-58
2021/06/24 22:42:58;;;;;;;14.20;7.72;;;;;;;0.01;0.00;59042.03;10315185;28;20041;-58
2021/06/24 22:47:58;;;;;;;14.70;7.55;;;;;;;0.01;0.00;59042.03;10315583;28;20046;-58
2021/06/24 22:52:59;;;;;;;23.35;8.43;;;;;;;0.01;0.00;59042.03;10297135;28;20049;-56
2021/06/24 22:57:59;;;;;;;14.00;7.85;;;;;;;0.01;0.00;59042.03;10296782;28;20048;-57
2021/06/24 23:02:58;;;;;;;19.23;8.80;;;;;;;0.01;0.00;59042.03;10314257;28;20044;-58
2021/06/24 23:07:57;;;;;;;15.20;8.40;;;;;;;0.01;0.00;59042.03;10321276;28;20040;-58
2021/06/24 23:12:57;;;;;;;17.35;8.55;;;;;;;0.01;0.00;59042.03;10321580;28;20524;-58
2021/06/24 23:17:56;;;;;;;18.17;9.15;;;;;;;0.01;0.00;59042.03;10321991;28;20048;-58
2021/06/24 23:22:55;;;;;;;19.00;8.02;;;;;;;0.01;0.00;59042.03;10321520;28;20047;-59
2021/06/24 23:27:54;;;;;;;16.45;7.90;;;;;;;0.01;0.00;59042.03;10321255;28;20045;-58
2021/06/24 23:32:54;;;;;;;17.02;8.10;;;;;;;0.01;0.00;59042.03;10320540;28;20044;-58
2021/06/24 23:37:54;;;;;;;12.48;8.02;;;;;;;0.01;0.00;59042.03;10320610;28;20107;-58
2021/06/24 23:42:53;;;;;;;13.30;7.28;;;;;;;0.01;0.00;59042.03;10320359;28;20072;-58
2021/06/24 23:47:54;;;;;;;12.00;7.75;;;;;;;0.01;0.00;59042.03;10320833;28;20052;-58
2021/06/24 23:52:52;;;;;;;15.85;8.25;;;;;;;0.01;0.00;59042.03;10320009;28;20041;-58
2021/06/24 23:57:51;;;;;;;19.92;7.85;;;;;;;0.01;0.00;59042.03;10319829;28;20084;-58
